Time;durP1;ratioP1;P1;durP2;ratioP2;P2;SDS_P1;SDS_P2;PMS_P1;PMS_P2;Temp;Humidity;BMP_temperature;BMP_pressure;BME280_temperature;BME280_humidity;BME280_pressure;Samples;Min_cycle;Max_cycle;Signal;HPM_P1;HPM_P2
2024/01/16 00:01:09;;;;;;;7.63;3.15;;;;;;;0.86;100.00;100816.09;5080759;28;20048;-66
2024/01/16 00:03:57;;;;;;;5.97;2.90;;;;;;;0.84;100.00;100812.78;5077291;28;20062;-67
2024/01/16 00:06:46;;;;;;;7.60;2.90;;;;;;;0.84;100.00;100813.63;5088041;28;20067;-65
2024/01/16 00:09:35;;;;;;;6.35;3.10;;;;;;;0.85;100.00;100811.78;5078356;28;20053;-67
2024/01/16 00:12:23;;;;;;;10.43;3.25;;;;;;;0.85;100.00;100807.22;5063810;28;20504;-67
2024/01/16 00:15:11;;;;;;;7.05;3.00;;;;;;;0.89;100.00;100809.50;5044939;28;20048;-65
2024/01/16 00:17:59;;;;;;;7.75;3.33;;;;;;;0.88;100.00;100803.31;5074719;28;20507;-66
2024/01/16 00:20:47;;;;;;;7.38;3.05;;;;;;;0.88;100.00;100805.19;5074074;28;20044;-66
2024/01/16 00:23:35;;;;;;;6.45;2.65;;;;;;;0.87;100.00;100795.47;5065140;28;20044;-65
2024/01/16 00:26:24;;;;;;;6.38;2.90;;;;;;;0.87;100.00;100807.03;5073358;28;20041;-67
2024/01/16 00:29:12;;;;;;;7.78;2.80;;;;;;;0.86;100.00;100805.38;5074432;28;20056;-67
2024/01/16 00:32:00;;;;;;;6.95;2.88;;;;;;;0.85;100.00;100809.91;5060432;28;20045;-66
2024/01/16 00:34:48;;;;;;;7.70;2.67;;;;;;;0.84;100.00;100821.69;5088744;28;20126;-70
2024/01/16 00:37:37;;;;;;;8.82;2.88;;;;;;;0.84;100.00;100816.31;5039270;28;20037;-67
2024/01/16 00:40:25;;;;;;;5.38;2.80;;;;;;;0.84;100.00;100805.59;5054669;28;20115;-67
2024/01/16 00:43:13;;;;;;;7.20;2.90;;;;;;;0.87;100.00;100822.28;5029045;28;20049;-65
2024/01/16 00:46:02;;;;;;;6.03;2.70;;;;;;;0.86;100.00;100818.78;5079320;28;20045;-65
2024/01/16 00:48:50;;;;;;;5.18;2.20;;;;;;;0.90;100.00;100816.53;5076919;28;20112;-72
2024/01/16 00:51:38;;;;;;;8.70;2.95;;;;;;;0.94;100.00;100817.75;5091734;28;20040;-63
2024/01/16 00:54:26;;;;;;;6.72;2.42;;;;;;;0.95;100.00;100819.41;5068101;28;20054;-65
2024/01/16 00:57:16;;;;;;;6.57;2.47;;;;;;;0.96;100.00;100831.78;5052086;28;20051;-66
2024/01/16 01:00:05;;;;;;;4.05;2.10;;;;;;;0.97;100.00;100828.91;5057863;28;20048;-60
2024/01/16 01:02:53;;;;;;;6.10;2.47;;;;;;;0.97;100.00;100833.47;5089175;28;20055;-65
2024/01/16 01:05:41;;;;;;;5.82;2.67;;;;;;;0.96;100.00;100843.38;5096199;28;20079;-66
2024/01/16 01:08:29;;;;;;;5.72;2.40;;;;;;;0.94;100.00;100839.22;5051020;28;20062;-67
2024/01/16 01:11:17;;;;;;;5.45;2.45;;;;;;;0.95;100.00;100836.34;5095185;28;20055;-67
2024/01/16 01:14:05;;;;;;;4.38;2.53;;;;;;;0.98;100.00;100840.47;5057226;28;20048;-66
2024/01/16 01:16:53;;;;;;;6.57;2.42;;;;;;;0.96;100.00;100837.16;5073695;28;20036;-68
2024/01/16 01:19:41;;;;;;;5.40;2.30;;;;;;;0.97;100.00;100836.16;5089755;28;20045;-67
2024/01/16 01:22:29;;;;;;;5.38;2.40;;;;;;;0.98;100.00;100827.88;5072866;28;20412;-66
2024/01/16 01:25:17;;;;;;;5.57;2.38;;;;;;;0.99;100.00;100831.41;5071408;28;20044;-65
2024/01/16 01:28:05;;;;;;;4.40;2.17;;;;;;;1.00;100.00;100827.69;5087887;28;20040;-66
2024/01/16 01:30:53;;;;;;;4.85;2.30;;;;;;;0.99;100.00;100821.50;5074051;28;20489;-66
2024/01/16 01:33:42;;;;;;;3.67;2.10;;;;;;;1.03;100.00;100827.25;5057542;28;20051;-66
2024/01/16 01:36:30;;;;;;;6.50;2.30;;;;;;;1.02;100.00;100825.63;5060259;28;20036;-66
2024/01/16 01:39:18;;;;;;;6.63;2.30;;;;;;;0.99;100.00;100826.84;5091328;28;20121;-67
2024/01/16 01:42:06;;;;;;;5.03;2.25;;;;;;;0.98;100.00;100835.91;5045034;28;20037;-67
2024/01/16 01:44:54;;;;;;;5.72;2.65;;;;;;;0.96;100.00;100827.28;5071871;28;20563;-69
2024/01/16 01:47:42;;;;;;;6.68;2.38;;;;;;;0.99;100.00;100826.03;5067481;28;20052;-67
2024/01/16 01:50:31;;;;;;;7.15;2.90;;;;;;;0.96;100.00;100832.63;5078107;28;20043;-67
2024/01/16 01:53:19;;;;;;;6.50;2.55;;;;;;;0.96;100.00;100834.47;5065471;28;20047;-67
2024/01/16 01:56:10;;;;;;;6.93;2.40;;;;;;;0.97;100.00;100833.47;5088376;28;20186;-67
2024/01/16 01:58:58;;;;;;;6.63;2.80;;;;;;;0.98;100.00;100835.09;5083929;28;20511;-67
2024/01/16 02:01:47;;;;;;;8.18;2.67;;;;;;;0.98;100.00;100840.47;5067696;28;20050;-66
2024/01/16 02:04:37;;;;;;;5.85;2.50;;;;;;;0.98;100.00;100840.47;5073096;28;20045;-66
2024/01/16 02:07:25;;;;;;;7.68;2.45;;;;;;;0.98;100.00;100838.59;5043863;28;20094;-68
2024/01/16 02:10:13;;;;;;;5.88;2.50;;;;;;;1.00;100.00;100843.78;5049620;28;20134;-68
2024/01/16 02:13:01;;;;;;;7.00;2.50;;;;;;;1.00;100.00;100857.19;5093280;28;20072;-67
2024/01/16 02:15:52;;;;;;;11.57;2.75;;;;;;;1.00;100.00;100844.59;5093513;28;20134;-68
2024/01/16 02:18:40;;;;;;;6.85;2.40;;;;;;;1.00;100.00;100838.41;5063718;28;20131;-68
2024/01/16 02:21:29;;;;;;;7.45;2.67;;;;;;;0.98;100.00;100843.97;5049005;28;20052;-66
2024/01/16 02:24:18;;;;;;;7.75;2.95;;;;;;;0.99;100.00;100844.81;5077115;28;20121;-67
2024/01/16 02:27:07;;;;;;;7.28;2.70;;;;;;;0.98;100.00;100843.97;5061953;28;20040;-67
2024/01/16 02:29:55;;;;;;;6.80;2.70;;;;;;;0.97;100.00;100850.38;5068072;28;20131;-67
2024/01/16 02:32:43;;;;;;;6.53;2.33;;;;;;;0.97;100.00;100838.81;5081530;28;20047;-67
2024/01/16 02:35:31;;;;;;;7.95;2.70;;;;;;;0.98;100.00;100852.00;5097402;28;20496;-67
2024/01/16 02:38:19;;;;;;;7.45;2.45;;;;;;;0.98;100.00;100841.28;5080271;28;20052;-67
2024/01/16 02:41:08;;;;;;;6.60;2.70;;;;;;;0.98;100.00;100851.19;5081811;28;20390;-66
2024/01/16 02:43:56;;;;;;;6.53;2.40;;;;;;;0.95;100.00;100848.94;5081786;28;20053;-69
2024/01/16 02:46:44;;;;;;;10.13;3.13;;;;;;;0.96;100.00;100861.31;5097486;28;20123;-67
2024/01/16 02:49:32;;;;;;;5.60;2.30;;;;;;;0.95;100.00;100854.28;5042373;28;20059;-67
2024/01/16 02:52:21;;;;;;;7.05;2.45;;;;;;;0.97;100.00;100855.75;5088788;28;20389;-66
2024/01/16 02:55:09;;;;;;;6.35;2.38;;;;;;;0.98;100.00;100856.56;5075975;28;20515;-67
2024/01/16 02:57:57;;;;;;;7.28;2.53;;;;;;;0.97;100.00;100858.44;5074539;28;20047;-67
2024/01/16 03:00:45;;;;;;;5.93;2.20;;;;;;;0.98;100.00;100861.94;5062805;28;20140;-67
2024/01/16 03:03:33;;;;;;;7.13;2.22;;;;;;;0.98;100.00;100867.28;5062101;28;20067;-66
2024/01/16 03:06:24;;;;;;;5.32;2.42;;;;;;;1.00;100.00;100867.91;5076645;28;20052;-66
2024/01/16 03:09:13;;;;;;;5.55;2.28;;;;;;;0.98;100.00;100870.78;5062600;28;20049;-66
2024/01/16 03:12:01;;;;;;;7.38;2.35;;;;;;;1.02;100.00;100868.53;5084382;28;20048;-66
2024/01/16 03:14:49;;;;;;;4.70;2.33;;;;;;;1.02;100.00;100869.38;5081531;28;20044;-67
2024/01/16 03:17:37;;;;;;;5.97;2.08;;;;;;;1.02;100.00;100868.53;5081017;28;20048;-66
2024/01/16 03:20:25;;;;;;;7.43;2.10;;;;;;;1.01;100.00;100869.56;5047825;28;20036;-66
2024/01/16 03:23:13;;;;;;;6.93;2.50;;;;;;;1.01;100.00;100857.00;5086363;28;20051;-65
2024/01/16 03:26:03;;;;;;;4.72;2.03;;;;;;;1.01;100.00;100858.81;5068454;28;20373;-65
2024/01/16 03:28:51;;;;;;;5.32;2.03;;;;;;;1.02;100.00;100857.81;5075728;28;20052;-65
2024/01/16 03:31:39;;;;;;;4.75;1.95;;;;;;;1.01;100.00;100867.72;5047373;28;20131;-67
2024/01/16 03:34:27;;;;;;;5.85;2.28;;;;;;;1.00;100.00;100865.25;5093960;28;20500;-67
2024/01/16 03:37:16;;;;;;;8.68;2.78;;;;;;;1.01;100.00;100865.03;5082515;28;20418;-67
2024/01/16 03:40:04;;;;;;;7.18;2.50;;;;;;;0.98;100.00;100856.56;5075517;28;20416;-68
2024/01/16 03:42:52;;;;;;;4.72;2.00;;;;;;;0.98;100.00;100859.25;5061465;28;20511;-67
2024/01/16 03:45:40;;;;;;;3.85;2.08;;;;;;;1.00;100.00;100857.19;5070230;28;20405;-66
2024/01/16 03:48:29;;;;;;;6.53;2.08;;;;;;;1.00;100.00;100852.63;5075346;28;20048;-67
2024/01/16 03:51:19;;;;;;;6.53;2.10;;;;;;;1.01;100.00;100843.59;5074980;28;20045;-67
2024/01/16 03:54:07;;;;;;;4.38;1.77;;;;;;;1.02;100.00;100841.72;5081671;28;20059;-68
2024/01/16 03:56:55;;;;;;;7.50;2.10;;;;;;;1.00;100.00;100838.41;5055161;28;20080;-67
2024/01/16 03:59:43;;;;;;;4.43;1.98;;;;;;;1.00;100.00;100838.41;5028597;28;20570;-67
2024/01/16 04:02:32;;;;;;;4.55;2.20;;;;;;;1.02;100.00;100847.09;5055851;28;20081;-67
2024/01/16 04:05:20;;;;;;;4.60;2.20;;;;;;;1.01;100.00;100845.41;5069604;28;20045;-67
2024/01/16 04:08:08;;;;;;;3.35;1.73;;;;;;;1.01;100.00;100842.72;5075821;28;20412;-68
2024/01/16 04:10:56;;;;;;;5.03;2.08;;;;;;;1.02;100.00;100834.50;5060269;28;20048;-68
2024/01/16 04:13:44;;;;;;;8.20;2.42;;;;;;;1.02;100.00;100834.50;5060792;28;20186;-67
2024/01/16 04:16:32;;;;;;;5.68;2.10;;;;;;;1.03;100.00;100835.31;5073401;28;20110;-68
2024/01/16 04:19:20;;;;;;;4.65;2.35;;;;;;;1.02;100.00;100833.66;5060073;28;20044;-66
2024/01/16 04:22:09;;;;;;;5.85;2.33;;;;;;;1.03;100.00;100835.31;5074740;28;20048;-68
2024/01/16 04:24:57;;;;;;;5.57;2.00;;;;;;;1.03;100.00;100833.47;5074160;28;20080;-67
2024/01/16 04:27:45;;;;;;;5.57;2.35;;;;;;;1.04;100.00;100834.28;5040360;28;20056;-67
2024/01/16 04:30:34;;;;;;;6.10;2.15;;;;;;;1.03;100.00;100829.94;5041127;28;20508;-68
2024/01/16 04:33:22;;;;;;;7.70;2.40;;;;;;;1.03;100.00;100833.47;5054601;28;20044;-69
2024/01/16 04:36:10;;;;;;;9.15;2.70;;;;;;;1.04;100.00;100823.56;5079586;28;20076;-68
2024/01/16 04:39:01;;;;;;;9.10;2.85;;;;;;;1.06;100.00;100824.19;5089605;28;20048;-68
2024/01/16 04:41:50;;;;;;;6.63;2.80;;;;;;;1.07;100.00;100831.19;5074221;28;20071;-68
2024/01/16 04:44:38;;;;;;;8.93;2.70;;;;;;;1.07;100.00;100833.88;5057070;28;20052;-66
2024/01/16 04:47:25;;;;;;;8.13;2.83;;;;;;;1.08;100.00;100830.16;5044819;28;20386;-68
2024/01/16 04:50:14;;;;;;;8.73;3.10;;;;;;;1.09;100.00;100831.81;5040543;28;20049;-67
2024/01/16 04:53:03;;;;;;;10.88;3.42;;;;;;;1.13;100.00;100837.59;5052744;28;20048;-67
2024/01/16 04:55:52;;;;;;;10.82;3.58;;;;;;;1.14;100.00;100834.72;5061705;28;20484;-66
2024/01/16 04:58:40;;;;;;;9.75;3.28;;;;;;;1.15;100.00;100840.91;5076756;28;20526;-69
2024/01/16 05:01:28;;;;;;;10.50;4.05;;;;;;;1.14;100.00;100836.56;5094999;28;20048;-67
2024/01/16 05:04:16;;;;;;;13.00;4.15;;;;;;;1.13;100.00;100835.75;5093542;28;20044;-67
2024/01/16 05:07:04;;;;;;;10.00;3.95;;;;;;;1.11;100.00;100835.13;5062587;28;20515;-67
2024/01/16 05:09:53;;;;;;;11.93;4.45;;;;;;;1.12;100.00;100830.59;5042221;28;20037;-66
2024/01/16 05:12:42;;;;;;;10.30;4.30;;;;;;;1.12;100.00;100826.03;5074850;28;20074;-66
2024/01/16 05:15:29;;;;;;;11.60;3.95;;;;;;;1.13;100.00;100827.72;5033009;28;20044;-66
2024/01/16 05:18:17;;;;;;;12.63;4.65;;;;;;;1.12;100.00;100823.34;5082558;28;20123;-65
2024/01/16 05:21:07;;;;;;;7.38;3.90;;;;;;;1.11;100.00;100821.72;5065000;28;20072;-65
2024/01/16 05:23:56;;;;;;;20.00;4.97;;;;;;;1.11;100.00;100824.41;5076201;28;20111;-67
2024/01/16 05:26:44;;;;;;;13.63;4.82;;;;;;;1.11;100.00;100813.66;5079733;28;20043;-60
2024/01/16 05:29:32;;;;;;;12.50;4.70;;;;;;;1.09;100.00;100805.00;5082227;28;20080;-63
2024/01/16 05:32:20;;;;;;;11.73;4.70;;;;;;;1.09;100.00;100799.63;5062466;28;20048;-65
2024/01/16 05:35:09;;;;;;;12.00;4.25;;;;;;;1.10;100.00;100800.44;5075096;28;20055;-66
2024/01/16 05:37:59;;;;;;;11.95;4.63;;;;;;;1.10;100.00;100803.13;5060516;28;20064;-63
2024/01/16 05:40:47;;;;;;;13.32;4.57;;;;;;;1.13;100.00;100800.03;5075875;28;20040;-67
2024/01/16 05:43:35;;;;;;;12.77;4.70;;;;;;;1.06;100.00;100792.00;5078696;28;20079;-66
2024/01/16 05:46:23;;;;;;;14.02;4.40;;;;;;;1.05;100.00;100793.00;5071331;28;20048;-66
2024/01/16 05:49:11;;;;;;;15.02;4.38;;;;;;;1.05;100.00;100787.63;5073543;28;20075;-68
2024/01/16 05:51:59;;;;;;;13.52;4.60;;;;;;;1.06;100.00;100790.13;5051815;28;20049;-67
2024/01/16 05:54:47;;;;;;;10.90;4.35;;;;;;;1.07;100.00;100780.22;5038559;28;20084;-67
2024/01/16 05:57:35;;;;;;;13.65;4.60;;;;;;;1.10;100.00;100785.16;5070497;28;20048;-67
2024/01/16 06:00:23;;;;;;;10.82;4.53;;;;;;;1.10;100.00;100782.47;5062558;28;20039;-67
2024/01/16 06:03:11;;;;;;;13.73;4.65;;;;;;;1.12;100.00;100782.28;5088596;28;20061;-66
2024/01/16 06:05:59;;;;;;;11.13;4.63;;;;;;;1.12;100.00;100783.09;5043767;28;20233;-66
2024/01/16 06:08:47;;;;;;;13.23;5.07;;;;;;;1.12;100.00;100777.72;5073971;28;20048;-67
2024/01/16 06:11:38;;;;;;;10.65;4.68;;;;;;;1.13;100.00;100783.91;5085046;28;20059;-67
2024/01/16 06:14:26;;;;;;;11.60;4.65;;;;;;;1.12;100.00;100783.09;5078754;28;20182;-66
2024/01/16 06:17:14;;;;;;;14.30;4.80;;;;;;;1.12;100.00;100788.47;5079308;28;20045;-67
2024/01/16 06:20:02;;;;;;;10.68;4.70;;;;;;;1.11;100.00;100786.84;5073368;28;20055;-68
2024/01/16 06:22:50;;;;;;;9.38;4.00;;;;;;;1.11;100.00;100789.50;5057691;28;20138;-67
2024/01/16 06:25:38;;;;;;;14.02;4.40;;;;;;;1.11;100.00;100781.47;5071171;28;20131;-67
2024/01/16 06:28:26;;;;;;;12.70;4.68;;;;;;;1.10;100.00;100779.78;5058624;28;20055;-66
2024/01/16 06:31:14;;;;;;;11.60;4.55;;;;;;;1.11;100.00;100786.84;5073564;28;20044;-67
2024/01/16 06:34:02;;;;;;;16.67;6.22;;;;;;;1.09;100.00;100774.66;5038074;28;20049;-66
2024/01/16 06:36:50;;;;;;;14.07;5.68;;;;;;;1.09;100.00;100777.34;5063386;28;20056;-67
2024/01/16 06:39:39;;;;;;;15.10;5.78;;;;;;;1.02;100.00;100782.69;5071456;28;20045;-65
2024/01/16 06:42:27;;;;;;;12.80;5.00;;;;;;;0.96;100.00;100786.19;5061636;28;20048;-64
2024/01/16 06:45:15;;;;;;;14.52;5.22;;;;;;;0.92;100.00;100777.75;5057285;28;20105;-67
2024/01/16 06:48:04;;;;;;;13.73;5.55;;;;;;;0.91;100.00;100781.44;5065531;28;20088;-65
2024/01/16 06:50:54;;;;;;;14.00;4.63;;;;;;;0.94;100.00;100781.06;5072410;28;20048;-64
2024/01/16 06:53:42;;;;;;;11.38;4.90;;;;;;;0.96;100.00;100778.13;5082290;28;20105;-64
2024/01/16 06:56:31;;;;;;;16.52;5.25;;;;;;;0.97;100.00;100780.63;5082460;28;20079;-64
2024/01/16 06:59:21;;;;;;;13.27;4.57;;;;;;;0.99;100.00;100785.81;5057155;28;20040;-64
2024/01/16 07:02:09;;;;;;;14.43;4.68;;;;;;;0.99;100.00;100777.75;5043854;28;20048;-64
2024/01/16 07:04:58;;;;;;;12.63;4.78;;;;;;;1.00;100.00;100782.06;5073266;28;20051;-66
2024/01/16 07:07:47;;;;;;;13.90;4.80;;;;;;;0.98;100.00;100784.13;5078470;28;20052;-65
2024/01/16 07:10:36;;;;;;;11.10;4.25;;;;;;;0.94;100.00;100782.88;5075976;28;20052;-64
2024/01/16 07:13:24;;;;;;;17.23;4.97;;;;;;;0.93;100.00;100789.28;5061049;28;20047;-64
2024/01/16 07:16:13;;;;;;;11.30;4.10;;;;;;;0.95;100.00;100792.59;5074090;28;20067;-64
2024/01/16 07:19:01;;;;;;;;;;;;;;;0.95;100.00;100797.97;4366449;28;10001756;-68
2024/01/16 07:21:50;;;;;;;13.20;4.47;;;;;;;0.95;100.00;100803.31;5054485;28;20085;-68
2024/01/16 07:24:38;;;;;;;12.07;4.40;;;;;;;0.94;100.00;100809.72;5059134;28;20063;-68
2024/01/16 07:27:26;;;;;;;12.23;4.35;;;;;;;0.96;100.00;100802.28;5071252;28;20044;-68
2024/01/16 07:30:15;;;;;;;11.40;4.50;;;;;;;0.93;100.00;100808.06;5072857;28;20576;-68
2024/01/16 07:33:04;;;;;;;11.40;3.85;;;;;;;0.94;100.00;100812.38;5071707;28;20507;-66
2024/01/16 07:35:53;;;;;;;12.57;4.80;;;;;;;0.95;100.00;100806.00;5057355;28;20049;-66
2024/01/16 07:38:41;;;;;;;12.15;4.10;;;;;;;0.96;100.00;100804.97;5056828;28;20513;-67
2024/01/16 07:41:29;;;;;;;15.75;4.32;;;;;;;0.99;100.00;100801.91;5044236;28;20051;-66
2024/01/16 07:44:17;;;;;;;9.75;3.97;;;;;;;0.97;100.00;100810.13;5055201;28;20527;-68
2024/01/16 07:47:05;;;;;;;12.10;4.25;;;;;;;0.98;100.00;100813.63;5071873;28;20098;-67
2024/01/16 07:49:53;;;;;;;7.45;3.50;;;;;;;0.96;100.00;100815.69;5057963;28;20049;-67
2024/01/16 07:52:41;;;;;;;12.32;3.97;;;;;;;0.92;100.00;100817.16;5057286;28;20048;-67
2024/01/16 07:55:29;;;;;;;8.68;4.00;;;;;;;0.91;100.00;100807.44;5054625;28;20044;-66
2024/01/16 07:58:17;;;;;;;12.20;4.20;;;;;;;0.91;100.00;100818.16;5036918;28;20521;-69
2024/01/16 08:01:05;;;;;;;11.90;4.32;;;;;;;0.91;100.00;100821.66;5052014;28;20485;-67
2024/01/16 08:03:53;;;;;;;10.38;4.28;;;;;;;0.93;100.00;100826.84;5036198;28;20053;-65
2024/01/16 08:06:42;;;;;;;10.65;4.15;;;;;;;0.94;100.00;100825.81;5043946;28;20040;-67
2024/01/16 08:09:30;;;;;;;10.80;4.40;;;;;;;0.94;100.00;100823.13;5057331;28;20056;-68
2024/01/16 08:12:18;;;;;;;11.80;4.43;;;;;;;0.91;100.00;100823.53;5057258;28;20519;-69
2024/01/16 08:15:07;;;;;;;16.73;4.85;;;;;;;0.89;100.00;100828.28;5037479;28;20230;-67
2024/01/16 08:17:55;;;;;;;15.85;5.00;;;;;;;0.88;100.00;100826.63;5071038;28;20047;-67
2024/01/16 08:20:43;;;;;;;11.18;4.40;;;;;;;0.89;100.00;100830.97;5057371;28;20041;-68
2024/01/16 08:23:31;;;;;;;13.43;4.50;;;;;;;0.89;100.00;100828.28;5045558;28;20041;-67
2024/01/16 08:26:20;;;;;;;9.40;3.45;;;;;;;1.02;100.00;100826.44;5057105;28;20178;-69
2024/01/16 08:29:08;;;;;;;11.52;4.65;;;;;;;1.17;100.00;100823.56;5056573;28;20484;-69
2024/01/16 08:31:56;;;;;;;16.02;4.43;;;;;;;1.18;100.00;100821.69;5075996;28;20465;-69
2024/01/16 08:34:44;;;;;;;10.13;3.72;;;;;;;1.02;100.00;100826.44;5050822;28;20102;-67
2024/01/16 08:37:34;;;;;;;12.43;4.30;;;;;;;0.98;100.00;100830.56;5056786;28;20061;-67
2024/01/16 08:40:22;;;;;;;8.82;4.00;;;;;;;0.98;100.00;100824.38;5060605;28;20028;-65
2024/01/16 08:43:10;;;;;;;8.77;4.20;;;;;;;0.97;100.00;100828.09;5075660;28;20144;-68
2024/01/16 08:45:58;;;;;;;9.65;4.05;;;;;;;0.93;100.00;100827.66;5070527;28;20168;-67
2024/01/16 08:48:46;;;;;;;14.50;4.65;;;;;;;0.92;100.00;100833.25;5049242;28;20511;-67
2024/01/16 08:51:35;;;;;;;11.57;4.28;;;;;;;1.00;100.00;100833.03;5067050;28;21045;-67
2024/01/16 08:54:23;;;;;;;18.23;4.57;;;;;;;1.00;100.00;100825.00;5054821;28;20094;-69
2024/01/16 08:57:13;;;;;;;13.52;4.32;;;;;;;1.05;100.00;100823.34;5069766;28;20048;-72
2024/01/16 09:00:12;;;;;;;12.63;4.07;;;;;;;1.00;100.00;100823.13;5067765;28;20049;-69
2024/01/16 09:03:01;;;;;;;12.68;4.65;;;;;;;0.99;100.00;100828.72;5028540;28;20083;-69
2024/01/16 09:05:52;;;;;;;18.60;6.07;;;;;;;1.04;100.00;100834.28;5031436;28;20051;-70
2024/01/16 09:08:40;;;;;;;11.50;4.07;;;;;;;1.02;100.00;100831.81;5069040;28;20694;-67
2024/01/16 09:11:28;;;;;;;13.15;4.43;;;;;;;1.08;100.00;100830.16;5044706;28;20544;-67
2024/01/16 09:14:16;;;;;;;13.45;4.72;;;;;;;1.08;100.00;100832.84;5076434;28;20052;-66
2024/01/16 09:17:05;;;;;;;10.57;3.92;;;;;;;1.04;100.00;100840.47;5072683;28;20044;-69
2024/01/16 09:19:53;;;;;;;11.57;4.20;;;;;;;1.03;100.00;100838.84;5051755;28;20048;-68
2024/01/16 09:22:41;;;;;;;10.70;4.22;;;;;;;1.02;100.00;100833.66;5082391;28;20500;-66
2024/01/16 09:25:29;;;;;;;8.15;4.05;;;;;;;1.02;100.00;100834.50;5090021;28;20053;-69
2024/01/16 09:28:18;;;;;;;10.48;3.90;;;;;;;1.03;100.00;100830.78;5088742;28;20118;-68
2024/01/16 09:31:09;;;;;;;12.32;4.35;;;;;;;1.03;100.00;100832.63;5060839;28;20119;-72
2024/01/16 09:33:57;;;;;;;11.38;4.30;;;;;;;1.05;100.00;100827.88;5086940;28;20047;-69
2024/01/16 09:36:46;;;;;;;10.35;4.30;;;;;;;1.07;100.00;100820.47;5096110;28;20051;-66
2024/01/16 09:39:35;;;;;;;11.73;4.20;;;;;;;1.09;100.00;100822.94;5083250;28;20079;-65
2024/01/16 09:42:24;;;;;;;11.27;3.90;;;;;;;1.10;100.00;100830.78;5086038;28;20041;-72
2024/01/16 09:45:15;;;;;;;10.57;3.90;;;;;;;1.11;100.00;100832.44;5044767;28;20048;-66
2024/01/16 09:48:05;;;;;;;12.02;4.55;;;;;;;1.13;100.00;100832.22;5061451;28;20059;-67
2024/01/16 09:50:53;;;;;;;16.13;4.82;;;;;;;1.16;100.00;100835.34;5070051;28;20072;-64
2024/01/16 09:53:42;;;;;;;13.52;4.30;;;;;;;1.15;100.00;100827.47;5090914;28;20040;-66
2024/01/16 09:56:31;;;;;;;14.02;4.47;;;;;;;1.17;100.00;100826.25;5077441;28;20502;-67
2024/01/16 09:59:21;;;;;;;11.63;4.53;;;;;;;1.17;100.00;100820.88;5065722;28;20070;-69
2024/01/16 10:02:11;;;;;;;15.05;4.55;;;;;;;1.12;100.00;100822.53;5086109;28;20135;-66
2024/01/16 10:04:59;;;;;;;12.07;4.63;;;;;;;1.10;100.00;100812.00;5069240;28;20052;-68
2024/01/16 10:07:48;;;;;;;11.77;4.75;;;;;;;1.13;100.00;100800.88;5094057;28;20052;-67
2024/01/16 10:10:36;;;;;;;16.08;5.25;;;;;;;1.17;100.00;100802.09;5066057;28;20048;-68
2024/01/16 10:13:37;;;;;;;9.88;4.13;;;;;;;1.17;100.00;100804.78;5059007;28;20532;-67
2024/01/16 10:17:14;;;;;;;10.40;4.55;;;;;;;1.13;100.00;100818.81;5077784;28;20040;-67
2024/01/16 10:20:04;;;;;;;12.90;4.80;;;;;;;1.10;100.00;100800.44;5078443;28;20043;-69
2024/01/16 10:22:53;;;;;;;10.13;4.40;;;;;;;1.01;100.00;100803.34;5077311;28;20090;-69
2024/01/16 10:25:41;;;;;;;13.25;4.70;;;;;;;1.02;100.00;100791.56;5046826;28;20455;-67
2024/01/16 10:28:30;;;;;;;11.85;4.70;;;;;;;1.04;100.00;100796.75;5057627;28;20194;-70
2024/01/16 10:31:17;;;;;;;10.60;4.30;;;;;;;1.02;100.00;100794.25;5072245;28;20048;-69
2024/01/16 10:34:22;;;;;;;11.02;4.60;;;;;;;1.01;100.00;100787.25;5044652;28;20087;-67
2024/01/16 10:37:11;;;;;;;14.73;4.88;;;;;;;1.02;100.00;100788.06;5084127;28;20044;-67
2024/01/16 10:39:59;;;;;;;11.15;5.32;;;;;;;1.01;100.00;100797.97;5094821;28;20044;-68
2024/01/16 10:42:59;;;;;;;12.70;5.40;;;;;;;0.99;100.00;100788.47;5059909;28;20037;-67
2024/01/16 10:45:47;;;;;;;12.48;4.93;;;;;;;0.95;100.00;100776.50;5085957;28;20526;-66
2024/01/16 10:48:36;;;;;;;16.65;5.07;;;;;;;0.98;100.00;100778.75;5067799;28;20063;-67
2024/01/16 10:51:24;;;;;;;11.75;5.03;;;;;;;0.99;100.00;100781.25;5068892;28;20048;-66
2024/01/16 10:54:15;;;;;;;13.40;5.50;;;;;;;1.00;100.00;100785.56;5080524;28;20055;-67
2024/01/16 10:57:04;;;;;;;12.13;5.07;;;;;;;1.01;100.00;100794.44;5050187;28;20167;-67
2024/01/16 11:00:04;;;;;;;11.38;5.20;;;;;;;1.03;100.00;100795.06;5061188;28;20044;-68
2024/01/16 11:03:01;;;;;;;12.40;5.60;;;;;;;1.03;100.00;100789.69;5047203;28;20060;-67
2024/01/16 11:05:50;;;;;;;10.57;4.80;;;;;;;1.06;100.00;100778.56;5060704;28;20432;-67
2024/01/16 11:08:38;;;;;;;12.32;4.72;;;;;;;1.08;100.00;100773.81;5060449;28;20115;-67
2024/01/16 11:11:27;;;;;;;11.40;4.72;;;;;;;1.17;100.00;100769.88;5047754;28;20055;-67
2024/01/16 11:14:16;;;;;;;13.20;5.75;;;;;;;1.25;100.00;100772.38;5076538;28;20052;-66
2024/01/16 11:17:05;;;;;;;10.18;4.97;;;;;;;1.27;100.00;100764.09;5059770;28;20041;-67
2024/01/16 11:19:53;;;;;;;13.93;6.45;;;;;;;1.34;100.00;100758.72;5046191;28;20045;-66
2024/01/16 11:23:02;;;;;;;14.20;5.13;;;;;;;1.35;100.00;100763.06;5053673;28;20040;-66
2024/01/16 11:25:50;;;;;;;11.82;5.32;;;;;;;1.32;100.00;100758.09;5074549;28;20049;-69
2024/01/16 11:28:38;;;;;;;15.15;5.35;;;;;;;1.24;100.00;100754.59;5059745;28;20049;-67
2024/01/16 11:31:36;;;;;;;14.15;5.10;;;;;;;1.24;100.00;100757.28;5075022;28;20293;-65
2024/01/16 11:34:42;;;;;;;12.15;4.72;;;;;;;1.22;100.00;100745.13;5055626;28;20041;-65
2024/01/16 11:37:34;;;;;;;10.57;4.65;;;;;;;1.23;100.00;100744.91;5056086;28;20124;-65
2024/01/16 11:40:23;;;;;;;12.43;5.60;;;;;;;1.34;100.00;100753.38;5045860;28;20040;-67
2024/01/16 11:43:33;;;;;;;11.20;4.47;;;;;;;1.35;100.00;100745.09;5048534;28;20041;-67
2024/01/16 11:46:21;;;;;;;11.80;4.60;;;;;;;1.37;100.00;100758.31;5081195;28;20044;-65
2024/01/16 11:49:09;;;;;;;11.77;4.70;;;;;;;1.41;100.00;100756.84;5094122;28;20056;-65
2024/01/16 11:51:58;;;;;;;10.57;4.32;;;;;;;1.46;100.00;100757.06;5053814;28;20077;-65
2024/01/16 11:54:46;;;;;;;16.77;6.97;;;;;;;1.57;100.00;100752.91;5077131;28;20071;-65
2024/01/16 11:57:53;;;;;;;12.05;4.85;;;;;;;1.55;100.00;100739.69;5075113;28;20052;-65
2024/01/16 12:00:42;;;;;;;11.63;4.70;;;;;;;1.54;100.00;100743.41;5042216;28;20060;-65
2024/01/16 12:03:30;;;;;;;12.05;4.88;;;;;;;1.54;100.00;100739.88;5040674;28;20049;-66
2024/01/16 12:06:23;;;;;;;9.25;4.45;;;;;;;1.54;100.00;100748.78;5044099;28;20048;-66
2024/01/16 12:09:17;;;;;;;17.52;8.05;;;;;;;1.57;100.00;100742.19;5075174;28;20179;-70
2024/01/16 12:12:05;;;;;;;18.73;7.20;;;;;;;1.60;100.00;100737.19;5075869;28;20048;-68
2024/01/16 12:14:53;;;;;;;11.07;4.55;;;;;;;1.54;100.00;100737.19;5080646;28;20412;-69
2024/01/16 12:17:58;;;;;;;9.32;4.32;;;;;;;1.49;100.00;100729.78;5079632;28;20051;-68
2024/01/16 12:20:46;;;;;;;13.02;5.45;;;;;;;1.60;100.00;100721.09;5045549;28;20521;-72
2024/01/16 12:23:34;;;;;;;12.85;4.45;;;;;;;1.60;100.00;100726.44;5061575;28;20037;-66
2024/01/16 12:26:23;;;;;;;10.27;4.43;;;;;;;1.59;100.00;100719.44;5065124;28;20511;-67
2024/01/16 12:29:11;;;;;;;11.50;4.95;;;;;;;1.65;100.00;100702.47;5066519;28;20044;-67
2024/01/16 12:32:16;;;;;;;11.73;5.15;;;;;;;1.63;100.00;100701.84;5057155;28;20044;-64
2024/01/16 12:35:04;;;;;;;11.30;4.57;;;;;;;1.63;100.00;100701.84;5059724;28;20051;-64
2024/01/16 12:38:02;;;;;;;11.38;4.95;;;;;;;1.62;100.00;100697.53;5074151;28;20052;-68
2024/01/16 12:40:52;;;;;;;13.88;4.80;;;;;;;1.60;100.00;100702.28;5072731;28;20110;-66
2024/01/16 12:43:40;;;;;;;11.00;4.78;;;;;;;1.59;100.00;100707.84;5060074;28;20131;-66
2024/01/16 12:46:28;;;;;;;11.25;4.50;;;;;;;1.51;100.00;100692.81;5074772;28;20041;-67
2024/01/16 12:49:17;;;;;;;10.82;4.40;;;;;;;1.50;100.00;100691.16;5086743;28;20193;-68
2024/01/16 12:52:24;;;;;;;13.27;5.00;;;;;;;1.52;100.00;100689.09;5050383;28;20071;-67
2024/01/16 12:55:15;;;;;;;12.75;4.80;;;;;;;1.55;100.00;100675.25;5045661;28;20047;-66
2024/01/16 12:58:20;;;;;;;10.52;4.60;;;;;;;1.53;100.00;100677.31;5072974;28;20048;-66
2024/01/16 13:01:25;;;;;;;11.45;6.28;;;;;;;1.62;100.00;100681.41;5076927;28;20408;-66
2024/01/16 13:04:26;;;;;;;10.63;4.38;;;;;;;1.63;100.00;100675.00;5038218;28;20052;-66